sensor_id;sensor_type;location;lat;lon;timestamp;pressure;altitude;pressure_sealevel;temperature;humidity
25947;BME280;13745;51.470;9.894;2022-09-28T00:02:05;97503.72;;;11.30;63.23
25947;BME280;13745;51.470;9.894;2022-09-28T00:04:52;97502.56;;;11.31;64.25
25947;BME280;13745;51.470;9.894;2022-09-28T00:07:38;97495.34;;;11.35;63.71
25947;BME280;13745;51.470;9.894;2022-09-28T00:10:25;97494.66;;;11.38;63.63
25947;BME280;13745;51.470;9.894;2022-09-28T00:13:11;97487.00;;;11.40;63.79
25947;BME280;13745;51.470;9.894;2022-09-28T00:16:04;97483.16;;;11.41;64.07
25947;BME280;13745;51.470;9.894;2022-09-28T00:18:50;97476.94;;;11.41;64.26
25947;BME280;13745;51.470;9.894;2022-09-28T00:21:40;97480.88;;;11.43;64.01
25947;BME280;13745;51.470;9.894;2022-09-28T00:24:26;97471.63;;;11.44;63.93
25947;BME280;13745;51.470;9.894;2022-09-28T00:27:12;97462.34;;;11.45;64.08
25947;BME280;13745;51.470;9.894;2022-09-28T00:29:57;97450.66;;;11.41;64.24
25947;BME280;13745;51.470;9.894;2022-09-28T00:32:43;97453.34;;;11.41;64.26
25947;BME280;13745;51.470;9.894;2022-09-28T00:35:29;97457.28;;;11.43;64.09
25947;BME280;13745;51.470;9.894;2022-09-28T00:38:15;97453.78;;;11.43;64.53
25947;BME280;13745;51.470;9.894;2022-09-28T00:41:01;97454.50;;;11.40;64.79
25947;BME280;13745;51.470;9.894;2022-09-28T00:43:49;97447.38;;;11.36;64.80
25947;BME280;13745;51.470;9.894;2022-09-28T00:46:35;97438.00;;;11.33;65.04
25947;BME280;13745;51.470;9.894;2022-09-28T00:49:26;97430.91;;;11.29;64.69
25947;BME280;13745;51.470;9.894;2022-09-28T00:52:19;97429.66;;;11.26;64.97
25947;BME280;13745;51.470;9.894;2022-09-28T00:55:11;97429.34;;;11.28;65.25
25947;BME280;13745;51.470;9.894;2022-09-28T00:58:01;97433.28;;;11.30;64.99
25947;BME280;13745;51.470;9.894;2022-09-28T01:00:48;97420.88;;;11.29;65.17
25947;BME280;13745;51.470;9.894;2022-09-28T01:03:34;97415.47;;;11.29;64.73
25947;BME280;13745;51.470;9.894;2022-09-28T01:06:23;97406.53;;;11.29;64.84
25947;BME280;13745;51.470;9.894;2022-09-28T01:09:12;97400.78;;;11.30;64.44
25947;BME280;13745;51.470;9.894;2022-09-28T01:12:00;97408.47;;;11.28;64.90
25947;BME280;13745;51.470;9.894;2022-09-28T01:14:47;97411.16;;;11.28;64.51
25947;BME280;13745;51.470;9.894;2022-09-28T01:17:42;97410.81;;;11.30;64.81
25947;BME280;13745;51.470;9.894;2022-09-28T01:20:50;97397.72;;;11.32;65.11
25947;BME280;13745;51.470;9.894;2022-09-28T01:23:57;97394.66;;;11.33;65.07
25947;BME280;13745;51.470;9.894;2022-09-28T01:26:56;97399.41;;;11.36;64.72
25947;BME280;13745;51.470;9.894;2022-09-28T01:29:49;97397.13;;;11.38;64.41
25947;BME280;13745;51.470;9.894;2022-09-28T01:32:46;97387.88;;;11.39;65.15
25947;BME280;13745;51.470;9.894;2022-09-28T01:35:38;97390.25;;;11.41;64.64
25947;BME280;13745;51.470;9.894;2022-09-28T01:38:30;97394.97;;;11.43;64.92
25947;BME280;13745;51.470;9.894;2022-09-28T01:41:19;97386.50;;;11.45;64.74
25947;BME280;13745;51.470;9.894;2022-09-28T01:44:11;97375.22;;;11.43;64.59
25947;BME280;13745;51.470;9.894;2022-09-28T01:47:00;97375.66;;;11.45;64.65
25947;BME280;13745;51.470;9.894;2022-09-28T01:49:50;97367.16;;;11.46;64.57
25947;BME280;13745;51.470;9.894;2022-09-28T01:52:44;97362.09;;;11.45;65.09
25947;BME280;13745;51.470;9.894;2022-09-28T01:55:33;97364.81;;;11.45;64.99
25947;BME280;13745;51.470;9.894;2022-09-28T01:58:27;97361.69;;;11.43;64.93
25947;BME280;13745;51.470;9.894;2022-09-28T02:01:19;97358.59;;;11.44;65.20
25947;BME280;13745;51.470;9.894;2022-09-28T02:04:10;97361.69;;;11.43;65.20
25947;BME280;13745;51.470;9.894;2022-09-28T02:07:01;97361.69;;;11.43;64.85
25947;BME280;13745;51.470;9.894;2022-09-28T02:09:54;97352.22;;;11.37;65.43
25947;BME280;13745;51.470;9.894;2022-09-28T02:12:47;97344.78;;;11.34;64.84
25947;BME280;13745;51.470;9.894;2022-09-28T02:15:41;97344.44;;;11.36;65.27
25947;BME280;13745;51.470;9.894;2022-09-28T02:18:30;97343.66;;;11.35;65.82
25947;BME280;13745;51.470;9.894;2022-09-28T02:21:22;97336.75;;;11.38;65.52
25947;BME280;13745;51.470;9.894;2022-09-28T02:24:14;97329.88;;;11.40;64.94
25947;BME280;13745;51.470;9.894;2022-09-28T02:27:04;97332.13;;;11.38;65.67
25947;BME280;13745;51.470;9.894;2022-09-28T02:29:52;97325.81;;;11.34;65.90
25947;BME280;13745;51.470;9.894;2022-09-28T02:32:40;97316.56;;;11.35;66.21
25947;BME280;13745;51.470;9.894;2022-09-28T02:35:28;97324.69;;;11.35;66.05
25947;BME280;13745;51.470;9.894;2022-09-28T02:38:15;97307.31;;;11.36;65.97
25947;BME280;13745;51.470;9.894;2022-09-28T02:41:03;97303.44;;;11.37;65.98
25947;BME280;13745;51.470;9.894;2022-09-28T02:43:56;97311.94;;;11.36;66.04
25947;BME280;13745;51.470;9.894;2022-09-28T02:46:51;97304.94;;;11.35;65.96
25947;BME280;13745;51.470;9.894;2022-09-28T02:49:55;97311.16;;;11.35;66.06
25947;BME280;13745;51.470;9.894;2022-09-28T02:53:10;97305.03;;;11.38;65.66
25947;BME280;13745;51.470;9.894;2022-09-28T02:56:11;97306.59;;;11.39;65.68
25947;BME280;13745;51.470;9.894;2022-09-28T02:59:06;97308.09;;;11.37;66.09
25947;BME280;13745;51.470;9.894;2022-09-28T03:02:02;97305.72;;;11.35;66.01
25947;BME280;13745;51.470;9.894;2022-09-28T03:05:05;97299.41;;;11.31;66.20
25947;BME280;13745;51.470;9.894;2022-09-28T03:07:58;97309.38;;;11.27;66.34
25947;BME280;13745;51.470;9.894;2022-09-28T03:10:48;97308.69;;;11.30;66.19
25947;BME280;13745;51.470;9.894;2022-09-28T03:13:37;97302.47;;;11.30;65.76
25947;BME280;13745;51.470;9.894;2022-09-28T03:16:23;97301.69;;;11.29;65.94
25947;BME280;13745;51.470;9.894;2022-09-28T03:19:11;97299.41;;;11.31;66.49
25947;BME280;13745;51.470;9.894;2022-09-28T03:21:57;97290.84;;;11.29;66.21
25947;BME280;13745;51.470;9.894;2022-09-28T03:24:44;97296.94;;;11.26;66.28
25947;BME280;13745;51.470;9.894;2022-09-28T03:27:30;97293.13;;;11.27;66.21
25947;BME280;13745;51.470;9.894;2022-09-28T03:30:16;97294.25;;;11.26;66.95
25947;BME280;13745;51.470;9.894;2022-09-28T03:33:04;97289.28;;;11.28;66.62
25947;BME280;13745;51.470;9.894;2022-09-28T03:35:50;97283.59;;;11.33;66.22
25947;BME280;13745;51.470;9.894;2022-09-28T03:38:37;97284.50;;;11.37;66.78
25947;BME280;13745;51.470;9.894;2022-09-28T03:41:24;97285.63;;;11.36;66.74
25947;BME280;13745;51.470;9.894;2022-09-28T03:44:12;97283.34;;;11.38;66.39
25947;BME280;13745;51.470;9.894;2022-09-28T03:46:58;97291.47;;;11.38;66.94
25947;BME280;13745;51.470;9.894;2022-09-28T03:49:44;97284.06;;;11.35;66.65
25947;BME280;13745;51.470;9.894;2022-09-28T03:52:31;97278.19;;;11.33;66.82
25947;BME280;13745;51.470;9.894;2022-09-28T03:55:16;97273.91;;;11.32;66.96
25947;BME280;13745;51.470;9.894;2022-09-28T03:58:02;97272.25;;;11.28;66.67
25947;BME280;13745;51.470;9.894;2022-09-28T04:00:49;97259.75;;;11.23;66.94
25947;BME280;13745;51.470;9.894;2022-09-28T04:03:35;97257.47;;;11.25;67.20
25947;BME280;13745;51.470;9.894;2022-09-28T04:06:20;97263.34;;;11.27;66.95
25947;BME280;13745;51.470;9.894;2022-09-28T04:09:06;97252.94;;;11.29;66.72
25947;BME280;13745;51.470;9.894;2022-09-28T04:11:52;97256.06;;;11.31;66.61
25947;BME280;13745;51.470;9.894;2022-09-28T04:14:38;97257.66;;;11.32;66.73
25947;BME280;13745;51.470;9.894;2022-09-28T04:17:24;97256.88;;;11.32;66.87
25947;BME280;13745;51.470;9.894;2022-09-28T04:20:10;97253.78;;;11.33;66.93
25947;BME280;13745;51.470;9.894;2022-09-28T04:23:13;97257.75;;;11.36;67.00
25947;BME280;13745;51.470;9.894;2022-09-28T04:25:59;97263.97;;;11.36;67.30
25947;BME280;13745;51.470;9.894;2022-09-28T04:28:45;97254.69;;;11.37;66.82
25947;BME280;13745;51.470;9.894;2022-09-28T04:31:50;97258.97;;;11.38;67.17
25947;BME280;13745;51.470;9.894;2022-09-28T04:34:39;97259.22;;;11.33;66.94
25947;BME280;13745;51.470;9.894;2022-09-28T04:37:24;97254.50;;;11.30;66.78
25947;BME280;13745;51.470;9.894;2022-09-28T04:40:10;97253.78;;;11.33;66.63
25947;BME280;13745;51.470;9.894;2022-09-28T04:42:56;97251.56;;;11.35;66.88
25947;BME280;13745;51.470;9.894;2022-09-28T04:45:42;97245.25;;;11.31;67.13
25947;BME280;13745;51.470;9.894;2022-09-28T04:48:30;97249.09;;;11.30;67.38
25947;BME280;13745;51.470;9.894;2022-09-28T04:51:32;97250.78;;;11.35;67.39
25947;BME280;13745;51.470;9.894;2022-09-28T04:54:18;97248.50;;;11.37;66.73
25947;BME280;13745;51.470;9.894;2022-09-28T04:57:03;97254.00;;;11.40;67.28
25947;BME280;13745;51.470;9.894;2022-09-28T04:59:50;97254.09;;;11.43;67.60
25947;BME280;13745;51.470;9.894;2022-09-28T05:02:36;97259.16;;;11.45;67.65
25947;BME280;13745;51.470;9.894;2022-09-28T05:05:42;97267.28;;;11.45;67.15
25947;BME280;13745;51.470;9.894;2022-09-28T05:08:48;97256.97;;;11.35;67.81
25947;BME280;13745;51.470;9.894;2022-09-28T05:11:34;97258.34;;;11.29;67.81
25947;BME280;13745;51.470;9.894;2022-09-28T05:14:22;97255.66;;;11.29;67.36
25947;BME280;13745;51.470;9.894;2022-09-28T05:17:08;97258.44;;;11.33;67.31
25947;BME280;13745;51.470;9.894;2022-09-28T05:20:07;97260.81;;;11.34;67.61
25947;BME280;13745;51.470;9.894;2022-09-28T05:22:52;97256.50;;;11.33;67.29
25947;BME280;13745;51.470;9.894;2022-09-28T05:25:39;97253.78;;;11.33;67.15
25947;BME280;13745;51.470;9.894;2022-09-28T05:28:43;97256.06;;;11.31;66.98
25947;BME280;13745;51.470;9.894;2022-09-28T05:31:48;97254.50;;;11.30;67.33
25947;BME280;13745;51.470;9.894;2022-09-28T05:34:54;97256.06;;;11.31;67.13
25947;BME280;13745;51.470;9.894;2022-09-28T05:37:43;97257.22;;;11.30;67.13
25947;BME280;13745;51.470;9.894;2022-09-28T05:40:30;97259.22;;;11.33;67.32
25947;BME280;13745;51.470;9.894;2022-09-28T05:43:17;97259.22;;;11.33;67.32
25947;BME280;13745;51.470;9.894;2022-09-28T05:46:03;97250.78;;;11.35;67.04
25947;BME280;13745;51.470;9.894;2022-09-28T05:48:51;97258.53;;;11.36;66.88
25947;BME280;13745;51.470;9.894;2022-09-28T05:51:37;97257.75;;;11.36;66.92
25947;BME280;13745;51.470;9.894;2022-09-28T05:54:23;97255.41;;;11.34;67.20
25947;BME280;13745;51.470;9.894;2022-09-28T05:57:08;97258.53;;;11.36;66.68
25947;BME280;13745;51.470;9.894;2022-09-28T05:59:55;97258.53;;;11.36;67.22
25947;BME280;13745;51.470;9.894;2022-09-28T06:02:41;97264.75;;;11.37;66.99
25947;BME280;13745;51.470;9.894;2022-09-28T06:05:29;97268.66;;;11.39;67.20
25947;BME280;13745;51.470;9.894;2022-09-28T06:08:15;97271.06;;;11.41;66.66
25947;BME280;13745;51.470;9.894;2022-09-28T06:11:05;97271.06;;;11.41;66.88
25947;BME280;13745;51.470;9.894;2022-09-28T06:13:52;97279.50;;;11.39;67.53
25947;BME280;13745;51.470;9.894;2022-09-28T06:16:39;97281.09;;;11.40;67.14
25947;BME280;13745;51.470;9.894;2022-09-28T06:19:25;97281.09;;;11.40;66.66
25947;BME280;13745;51.470;9.894;2022-09-28T06:22:30;97286.53;;;11.40;67.14
25947;BME280;13745;51.470;9.894;2022-09-28T06:25:23;97281.88;;;11.41;66.69
25947;BME280;13745;51.470;9.894;2022-09-28T06:28:12;97285.03;;;11.42;67.10
25947;BME280;13745;51.470;9.894;2022-09-28T06:30:58;97294.38;;;11.45;66.43
25947;BME280;13745;51.470;9.894;2022-09-28T06:33:46;97289.75;;;11.45;66.83
25947;BME280;13745;51.470;9.894;2022-09-28T06:36:33;97292.09;;;11.47;66.80
25947;BME280;13745;51.470;9.894;2022-09-28T06:39:19;97297.59;;;11.50;66.65
25947;BME280;13745;51.470;9.894;2022-09-28T06:42:05;97296.81;;;11.50;66.99
25947;BME280;13745;51.470;9.894;2022-09-28T06:45:11;97299.94;;;11.52;66.53
25947;BME280;13745;51.470;9.894;2022-09-28T06:48:02;97296.13;;;11.53;66.44
25947;BME280;13745;51.470;9.894;2022-09-28T06:50:55;97307.03;;;11.56;66.28
25947;BME280;13745;51.470;9.894;2022-09-28T06:54:11;97308.69;;;11.61;66.42
25947;BME280;13745;51.470;9.894;2022-09-28T06:57:07;97306.75;;;11.61;66.28
25947;BME280;13745;51.470;9.894;2022-09-28T06:59:53;97312.28;;;11.64;66.00
25947;BME280;13745;51.470;9.894;2022-09-28T07:02:38;97314.38;;;11.71;65.91
25947;BME280;13745;51.470;9.894;2022-09-28T07:05:33;97325.72;;;11.76;65.99
25947;BME280;13745;51.470;9.894;2022-09-28T07:08:40;97327.75;;;11.79;65.60
25947;BME280;13745;51.470;9.894;2022-09-28T07:11:52;97325.47;;;11.81;65.48
25947;BME280;13745;51.470;9.894;2022-09-28T07:14:57;97334.81;;;11.84;65.61
25947;BME280;13745;51.470;9.894;2022-09-28T07:17:45;97329.81;;;11.86;65.31
25947;BME280;13745;51.470;9.894;2022-09-28T07:20:32;97335.78;;;11.91;65.24
25947;BME280;13745;51.470;9.894;2022-09-28T07:23:18;97335.94;;;11.98;65.38
25947;BME280;13745;51.470;9.894;2022-09-28T07:26:25;97332.97;;;12.03;65.03
25947;BME280;13745;51.470;9.894;2022-09-28T07:29:18;97346.25;;;12.08;65.16
25947;BME280;13745;51.470;9.894;2022-09-28T07:32:22;97351.56;;;12.19;64.74
25947;BME280;13745;51.470;9.894;2022-09-28T07:35:17;97351.75;;;12.45;64.42
25947;BME280;13745;51.470;9.894;2022-09-28T07:38:06;97354.38;;;12.60;64.43
25947;BME280;13745;51.470;9.894;2022-09-28T07:40:52;97360.19;;;12.77;63.66
25947;BME280;13745;51.470;9.894;2022-09-28T07:44:04;97360.03;;;13.26;63.14
25947;BME280;13745;51.470;9.894;2022-09-28T07:46:52;97363.75;;;13.81;62.21
25947;BME280;13745;51.470;9.894;2022-09-28T07:49:58;97366.91;;;14.30;61.75
25947;BME280;13745;51.470;9.894;2022-09-28T07:52:57;97373.91;;;14.85;60.80
25947;BME280;13745;51.470;9.894;2022-09-28T07:55:50;97367.09;;;15.30;59.91
25947;BME280;13745;51.470;9.894;2022-09-28T07:58:51;97362.31;;;15.56;59.09
25947;BME280;13745;51.470;9.894;2022-09-28T08:01:57;97378.84;;;15.73;58.79
25947;BME280;13745;51.470;9.894;2022-09-28T08:04:43;97387.19;;;16.33;57.29
25947;BME280;13745;51.470;9.894;2022-09-28T08:07:29;97388.03;;;16.44;56.98
25947;BME280;13745;51.470;9.894;2022-09-28T08:10:21;97393.81;;;16.32;56.69
25947;BME280;13745;51.470;9.894;2022-09-28T08:13:36;97391.56;;;16.02;56.96
25947;BME280;13745;51.470;9.894;2022-09-28T08:16:56;97398.78;;;15.81;57.29
25947;BME280;13745;51.470;9.894;2022-09-28T08:20:02;97403.72;;;15.33;57.58
25947;BME280;13745;51.470;9.894;2022-09-28T08:23:07;97405.22;;;14.98;57.82
25947;BME280;13745;51.470;9.894;2022-09-28T08:25:54;97411.13;;;14.75;58.24
25947;BME280;13745;51.470;9.894;2022-09-28T08:28:41;97408.72;;;14.70;58.29
25947;BME280;13745;51.470;9.894;2022-09-28T08:31:47;97408.25;;;15.19;57.47
25947;BME280;13745;51.470;9.894;2022-09-28T08:34:52;97405.78;;;16.17;55.86
25947;BME280;13745;51.470;9.894;2022-09-28T08:37:59;97407.38;;;17.55;53.20
25947;BME280;13745;51.470;9.894;2022-09-28T08:41:14;97411.72;;;17.73;52.48
25947;BME280;13745;51.470;9.894;2022-09-28T08:44:37;97414.13;;;16.98;53.55
25947;BME280;13745;51.470;9.894;2022-09-28T08:47:34;97416.72;;;16.17;54.71
25947;BME280;13745;51.470;9.894;2022-09-28T08:50:55;97415.97;;;15.46;55.87
25947;BME280;13745;51.470;9.894;2022-09-28T08:54:03;97420.00;;;14.97;56.55
25947;BME280;13745;51.470;9.894;2022-09-28T08:57:03;97424.88;;;14.56;57.13
25947;BME280;13745;51.470;9.894;2022-09-28T08:59:52;97425.16;;;14.26;57.18
25947;BME280;13745;51.470;9.894;2022-09-28T09:02:46;97424.75;;;14.02;57.28
25947;BME280;13745;51.470;9.894;2022-09-28T09:05:45;97422.03;;;13.80;57.47
25947;BME280;13745;51.470;9.894;2022-09-28T09:09:02;97435.66;;;13.61;57.74
25947;BME280;13745;51.470;9.894;2022-09-28T09:11:55;97421.44;;;13.49;57.85
25947;BME280;13745;51.470;9.894;2022-09-28T09:18:07;97438.53;;;13.49;58.00
25947;BME280;13745;51.470;9.894;2022-09-28T09:21:26;97437.00;;;13.52;58.08
25947;BME280;13745;51.470;9.894;2022-09-28T09:24:23;97436.44;;;13.62;57.75
25947;BME280;13745;51.470;9.894;2022-09-28T09:27:16;97442.13;;;13.75;57.57
25947;BME280;13745;51.470;9.894;2022-09-28T09:30:05;97448.91;;;13.85;57.47
25947;BME280;13745;51.470;9.894;2022-09-28T09:33:28;97449.91;;;13.95;57.24
25947;BME280;13745;51.470;9.894;2022-09-28T09:36:48;97444.72;;;14.09;57.46
25947;BME280;13745;51.470;9.894;2022-09-28T09:40:07;97449.97;;;14.21;57.00
25947;BME280;13745;51.470;9.894;2022-09-28T09:43:49;97456.91;;;14.66;56.20
25947;BME280;13745;51.470;9.894;2022-09-28T09:47:05;97460.25;;;15.07;55.45
25947;BME280;13745;51.470;9.894;2022-09-28T09:50:09;97463.28;;;15.95;53.97
25947;BME280;13745;51.470;9.894;2022-09-28T09:53:02;97470.19;;;16.22;53.11
25947;BME280;13745;51.470;9.894;2022-09-28T09:55:54;97471.06;;;15.97;53.97
25947;BME280;13745;51.470;9.894;2022-09-28T09:58:49;97471.69;;;15.48;54.50
25947;BME280;13745;51.470;9.894;2022-09-28T10:01:50;97473.16;;;15.10;55.13
25947;BME280;13745;51.470;9.894;2022-09-28T10:04:53;97475.50;;;14.86;55.62
25947;BME280;13745;51.470;9.894;2022-09-28T10:07:52;97482.69;;;14.72;55.59
25947;BME280;13745;51.470;9.894;2022-09-28T10:10:46;97479.50;;;14.66;55.65
25947;BME280;13745;51.470;9.894;2022-09-28T10:13:36;97485.50;;;14.53;55.62
25947;BME280;13745;51.470;9.894;2022-09-28T10:16:36;97476.25;;;14.35;55.80
25947;BME280;13745;51.470;9.894;2022-09-28T10:19:30;97484.19;;;14.22;55.84
25947;BME280;13745;51.470;9.894;2022-09-28T10:22:50;97479.44;;;14.15;56.05
25947;BME280;13745;51.470;9.894;2022-09-28T10:25:37;97484.09;;;14.15;56.00
25947;BME280;13745;51.470;9.894;2022-09-28T10:28:31;97477.06;;;14.14;55.75
25947;BME280;13745;51.470;9.894;2022-09-28T10:31:38;97478.19;;;14.13;55.94
25947;BME280;13745;51.470;9.894;2022-09-28T10:34:30;97486.59;;;14.27;55.72
25947;BME280;13745;51.470;9.894;2022-09-28T10:37:31;97486.63;;;14.52;55.18
25947;BME280;13745;51.470;9.894;2022-09-28T10:40:37;97493.22;;;15.27;53.82
25947;BME280;13745;51.470;9.894;2022-09-28T10:43:26;97488.72;;;16.42;51.63
25947;BME280;13745;51.470;9.894;2022-09-28T10:46:20;97494.94;;;17.51;49.96
25947;BME280;13745;51.470;9.894;2022-09-28T10:49:14;97494.38;;;18.09;48.75
25947;BME280;13745;51.470;9.894;2022-09-28T10:52:31;97487.41;;;18.97;47.25
25947;BME280;13745;51.470;9.894;2022-09-28T10:55:25;97481.00;;;19.55;46.12
25947;BME280;13745;51.470;9.894;2022-09-28T10:58:23;97482.69;;;19.01;47.10
25947;BME280;13745;51.470;9.894;2022-09-28T11:01:11;97487.78;;;18.41;47.91
25947;BME280;13745;51.470;9.894;2022-09-28T11:04:00;97488.16;;;18.19;48.52
25947;BME280;13745;51.470;9.894;2022-09-28T11:06:49;97493.56;;;17.98;48.83
25947;BME280;13745;51.470;9.894;2022-09-28T11:09:40;97494.72;;;17.91;48.86
25947;BME280;13745;51.470;9.894;2022-09-28T11:12:37;97493.66;;;19.01;47.12
25947;BME280;13745;51.470;9.894;2022-09-28T11:15:30;97493.88;;;19.82;45.12
25947;BME280;13745;51.470;9.894;2022-09-28T11:18:26;97496.75;;;19.34;45.69
25947;BME280;13745;51.470;9.894;2022-09-28T11:21:15;97483.88;;;18.59;46.86
25947;BME280;13745;51.470;9.894;2022-09-28T11:24:24;97491.22;;;17.97;47.87
25947;BME280;13745;51.470;9.894;2022-09-28T11:27:18;97495.03;;;17.69;48.36
25947;BME280;13745;51.470;9.894;2022-09-28T11:30:20;97496.38;;;18.19;47.49
25947;BME280;13745;51.470;9.894;2022-09-28T11:33:29;97492.38;;;19.50;45.26
25947;BME280;13745;51.470;9.894;2022-09-28T11:37:01;97494.78;;;21.98;41.62
25947;BME280;13745;51.470;9.894;2022-09-28T11:39:59;97499.94;;;23.67;39.87
25947;BME280;13745;51.470;9.894;2022-09-28T11:42:58;97497.84;;;26.77;36.13
25947;BME280;13745;51.470;9.894;2022-09-28T11:45:54;97488.00;;;29.58;32.67
25947;BME280;13745;51.470;9.894;2022-09-28T11:48:48;97490.94;;;27.97;33.78
25947;BME280;13745;51.470;9.894;2022-09-28T11:51:40;97492.03;;;26.47;35.43
25947;BME280;13745;51.470;9.894;2022-09-28T11:54:31;97493.56;;;24.77;37.40
25947;BME280;13745;51.470;9.894;2022-09-28T11:57:25;97490.63;;;25.31;36.54
25947;BME280;13745;51.470;9.894;2022-09-28T12:00:14;97499.53;;;29.22;31.21
25947;BME280;13745;51.470;9.894;2022-09-28T12:03:07;97512.41;;;33.04;27.85
25947;BME280;13745;51.470;9.894;2022-09-28T12:05:59;97509.06;;;32.43;27.92
25947;BME280;13745;51.470;9.894;2022-09-28T12:08:50;97502.59;;;29.89;30.99
25947;BME280;13745;51.470;9.894;2022-09-28T12:12:00;97500.47;;;27.75;32.89
25947;BME280;13745;51.470;9.894;2022-09-28T12:15:12;97505.44;;;26.24;34.44
25947;BME280;13745;51.470;9.894;2022-09-28T12:18:02;97509.69;;;24.63;36.00
25947;BME280;13745;51.470;9.894;2022-09-28T12:20:53;97512.25;;;26.48;33.34
25947;BME280;13745;51.470;9.894;2022-09-28T12:23:45;97509.94;;;25.19;34.63
25947;BME280;13745;51.470;9.894;2022-09-28T12:26:41;97504.53;;;23.73;36.76
25947;BME280;13745;51.470;9.894;2022-09-28T12:29:32;97510.09;;;22.28;38.52
25947;BME280;13745;51.470;9.894;2022-09-28T12:32:27;97501.81;;;21.33;39.62
25947;BME280;13745;51.470;9.894;2022-09-28T12:35:25;97497.81;;;20.48;40.51
25947;BME280;13745;51.470;9.894;2022-09-28T12:38:26;97491.94;;;19.79;41.90
25947;BME280;13745;51.470;9.894;2022-09-28T12:41:22;97502.22;;;19.37;42.26
25947;BME280;13745;51.470;9.894;2022-09-28T12:44:23;97496.00;;;19.13;42.60
25947;BME280;13745;51.470;9.894;2022-09-28T12:47:24;97498.75;;;18.72;43.32
25947;BME280;13745;51.470;9.894;2022-09-28T12:50:18;97518.28;;;18.26;44.41
25947;BME280;13745;51.470;9.894;2022-09-28T12:53:18;97531.78;;;17.71;45.37
25947;BME280;13745;51.470;9.894;2022-09-28T12:56:11;97532.28;;;17.20;46.22
25947;BME280;13745;51.470;9.894;2022-09-28T12:59:07;97514.72;;;17.25;46.42
25947;BME280;13745;51.470;9.894;2022-09-28T13:02:29;97519.94;;;18.68;44.70
25947;BME280;13745;51.470;9.894;2022-09-28T13:05:30;97522.06;;;19.96;42.95
25947;BME280;13745;51.470;9.894;2022-09-28T13:08:29;97523.38;;;20.38;42.36
25947;BME280;13745;51.470;9.894;2022-09-28T13:11:24;97520.56;;;20.52;42.24
25947;BME280;13745;51.470;9.894;2022-09-28T13:14:30;97522.94;;;20.50;42.35
25947;BME280;13745;51.470;9.894;2022-09-28T13:17:23;97526.19;;;20.88;41.86
25947;BME280;13745;51.470;9.894;2022-09-28T13:20:25;97518.22;;;20.54;42.13
25947;BME280;13745;51.470;9.894;2022-09-28T13:23:18;97520.13;;;19.86;42.74
25947;BME280;13745;51.470;9.894;2022-09-28T13:26:20;97516.34;;;19.43;43.29
25947;BME280;13745;51.470;9.894;2022-09-28T13:29:12;97516.31;;;19.46;43.27
25947;BME280;13745;51.470;9.894;2022-09-28T13:32:00;97514.69;;;19.79;43.08
25947;BME280;13745;51.470;9.894;2022-09-28T13:34:47;97513.56;;;20.44;42.85
25947;BME280;13745;51.470;9.894;2022-09-28T13:37:36;97514.06;;;20.82;42.42
25947;BME280;13745;51.470;9.894;2022-09-28T13:41:08;97514.63;;;21.07;41.87
25947;BME280;13745;51.470;9.894;2022-09-28T13:47:24;97522.06;;;20.66;41.70
25947;BME280;13745;51.470;9.894;2022-09-28T13:50:19;97530.53;;;20.25;41.73
25947;BME280;13745;51.470;9.894;2022-09-28T13:53:16;97528.44;;;19.73;42.15
25947;BME280;13745;51.470;9.894;2022-09-28T13:56:20;97530.38;;;19.62;41.91
25947;BME280;13745;51.470;9.894;2022-09-28T13:59:15;97539.22;;;20.14;41.16
25947;BME280;13745;51.470;9.894;2022-09-28T14:02:16;97535.31;;;20.11;40.90
25947;BME280;13745;51.470;9.894;2022-09-28T14:05:32;97539.41;;;19.76;41.20
25947;BME280;13745;51.470;9.894;2022-09-28T14:08:32;97535.09;;;19.78;41.40
25947;BME280;13745;51.470;9.894;2022-09-28T14:11:38;97542.19;;;19.52;41.66
25947;BME280;13745;51.470;9.894;2022-09-28T14:17:53;97550.91;;;19.06;42.92
25947;BME280;13745;51.470;9.894;2022-09-28T14:20:49;97550.84;;;18.72;43.61
25947;BME280;13745;51.470;9.894;2022-09-28T14:23:50;97549.22;;;18.23;44.53
25947;BME280;13745;51.470;9.894;2022-09-28T14:30:21;97562.19;;;17.52;45.47
25947;BME280;13745;51.470;9.894;2022-09-28T14:33:15;97558.41;;;17.77;45.21
25947;BME280;13745;51.470;9.894;2022-09-28T14:36:20;97561.56;;;17.90;44.99
25947;BME280;13745;51.470;9.894;2022-09-28T14:39:32;97563.84;;;17.67;45.26
25947;BME280;13745;51.470;9.894;2022-09-28T14:42:36;97562.88;;;17.39;45.50
25947;BME280;13745;51.470;9.894;2022-09-28T14:45:35;97566.00;;;17.38;45.39
25947;BME280;13745;51.470;9.894;2022-09-28T14:48:46;97562.41;;;17.27;45.51
25947;BME280;13745;51.470;9.894;2022-09-28T14:52:08;97562.84;;;17.29;45.44
25947;BME280;13745;51.470;9.894;2022-09-28T14:54:56;97574.59;;;17.40;45.30
25947;BME280;13745;51.470;9.894;2022-09-28T14:57:42;97574.66;;;17.43;44.99
25947;BME280;13745;51.470;9.894;2022-09-28T15:00:28;97578.94;;;17.41;44.67
25947;BME280;13745;51.470;9.894;2022-09-28T15:03:15;97573.78;;;17.32;44.92
25947;BME280;13745;51.470;9.894;2022-09-28T15:06:02;97577.56;;;17.14;45.32
25947;BME280;13745;51.470;9.894;2022-09-28T15:08:48;97573.13;;;17.00;45.52
25947;BME280;13745;51.470;9.894;2022-09-28T15:11:38;97573.41;;;16.88;45.71
25947;BME280;13745;51.470;9.894;2022-09-28T15:14:26;97580.84;;;16.87;45.67
25947;BME280;13745;51.470;9.894;2022-09-28T15:17:18;97579.66;;;16.85;45.83
25947;BME280;13745;51.470;9.894;2022-09-28T15:20:21;97581.19;;;16.79;45.89
25947;BME280;13745;51.470;9.894;2022-09-28T15:23:23;97594.22;;;16.57;45.94
25947;BME280;13745;51.470;9.894;2022-09-28T15:26:20;97583.03;;;16.29;46.52
25947;BME280;13745;51.470;9.894;2022-09-28T15:29:16;97593.34;;;16.13;46.38
25947;BME280;13745;51.470;9.894;2022-09-28T15:32:02;97591.22;;;16.00;46.60
25947;BME280;13745;51.470;9.894;2022-09-28T15:34:48;97588.28;;;15.83;47.13
25947;BME280;13745;51.470;9.894;2022-09-28T15:37:36;97591.25;;;15.71;47.02
25947;BME280;13745;51.470;9.894;2022-09-28T15:40:33;97596.19;;;15.63;47.32